sensor_id;sensor_type;location;lat;lon;timestamp;P1;durP1;ratioP1;P2;durP2;ratioP2
77430;SDS011;66498;48.564;19.272;2023-06-19T00:01:46;7.25;;;6.45;;
77430;SDS011;66498;48.564;19.272;2023-06-19T00:04:12;6.78;;;6.05;;
77430;SDS011;66498;48.564;19.272;2023-06-19T00:06:37;7.20;;;6.30;;
77430;SDS011;66498;48.564;19.272;2023-06-19T00:09:03;7.25;;;6.50;;
77430;SDS011;66498;48.564;19.272;2023-06-19T00:11:28;8.63;;;6.68;;
77430;SDS011;66498;48.564;19.272;2023-06-19T00:13:54;7.28;;;6.45;;
77430;SDS011;66498;48.564;19.272;2023-06-19T00:16:20;13.13;;;6.90;;
77430;SDS011;66498;48.564;19.272;2023-06-19T00:18:45;8.30;;;6.75;;
77430;SDS011;66498;48.564;19.272;2023-06-19T00:21:11;10.75;;;7.10;;
77430;SDS011;66498;48.564;19.272;2023-06-19T00:23:37;8.20;;;7.28;;
77430;SDS011;66498;48.564;19.272;2023-06-19T00:26:02;10.23;;;7.53;;
77430;SDS011;66498;48.564;19.272;2023-06-19T00:28:28;9.25;;;7.80;;
77430;SDS011;66498;48.564;19.272;2023-06-19T00:30:55;8.65;;;6.93;;
77430;SDS011;66498;48.564;19.272;2023-06-19T00:33:20;7.25;;;6.28;;
77430;SDS011;66498;48.564;19.272;2023-06-19T00:35:46;6.80;;;5.60;;
77430;SDS011;66498;48.564;19.272;2023-06-19T00:38:13;6.85;;;6.07;;
77430;SDS011;66498;48.564;19.272;2023-06-19T00:40:38;7.78;;;6.65;;
77430;SDS011;66498;48.564;19.272;2023-06-19T00:43:04;6.82;;;6.10;;
77430;SDS011;66498;48.564;19.272;2023-06-19T00:45:31;7.13;;;6.43;;
77430;SDS011;66498;48.564;19.272;2023-06-19T00:47:57;7.78;;;6.38;;
77430;SDS011;66498;48.564;19.272;2023-06-19T00:50:27;7.35;;;6.55;;
77430;SDS011;66498;48.564;19.272;2023-06-19T00:52:55;7.10;;;6.40;;
77430;SDS011;66498;48.564;19.272;2023-06-19T00:55:20;7.75;;;6.75;;
77430;SDS011;66498;48.564;19.272;2023-06-19T00:57:46;9.02;;;6.53;;
77430;SDS011;66498;48.564;19.272;2023-06-19T01:00:13;8.38;;;6.60;;
77430;SDS011;66498;48.564;19.272;2023-06-19T01:02:39;8.40;;;7.00;;
77430;SDS011;66498;48.564;19.272;2023-06-19T01:05:05;8.15;;;7.35;;
77430;SDS011;66498;48.564;19.272;2023-06-19T01:10:27;7.85;;;7.05;;
77430;SDS011;66498;48.564;19.272;2023-06-19T01:12:59;9.35;;;6.90;;
77430;SDS011;66498;48.564;19.272;2023-06-19T01:15:27;8.80;;;6.93;;
77430;SDS011;66498;48.564;19.272;2023-06-19T01:17:55;9.35;;;7.45;;
77430;SDS011;66498;48.564;19.272;2023-06-19T01:20:22;8.27;;;7.28;;
77430;SDS011;66498;48.564;19.272;2023-06-19T01:22:48;8.65;;;7.47;;
77430;SDS011;66498;48.564;19.272;2023-06-19T01:25:14;8.40;;;7.50;;
77430;SDS011;66498;48.564;19.272;2023-06-19T01:27:40;8.63;;;7.75;;
77430;SDS011;66498;48.564;19.272;2023-06-19T01:30:10;9.80;;;7.60;;
77430;SDS011;66498;48.564;19.272;2023-06-19T01:32:49;8.73;;;7.82;;
77430;SDS011;66498;48.564;19.272;2023-06-19T01:35:22;9.10;;;8.18;;
77430;SDS011;66498;48.564;19.272;2023-06-19T01:37:50;9.73;;;8.07;;
77430;SDS011;66498;48.564;19.272;2023-06-19T01:40:17;9.38;;;8.38;;
77430;SDS011;66498;48.564;19.272;2023-06-19T01:42:46;9.43;;;8.45;;
77430;SDS011;66498;48.564;19.272;2023-06-19T01:45:12;11.05;;;8.48;;
77430;SDS011;66498;48.564;19.272;2023-06-19T01:47:38;10.13;;;8.35;;
77430;SDS011;66498;48.564;19.272;2023-06-19T01:50:03;8.65;;;7.82;;
77430;SDS011;66498;48.564;19.272;2023-06-19T01:52:30;8.88;;;7.93;;
77430;SDS011;66498;48.564;19.272;2023-06-19T01:54:55;10.95;;;9.00;;
77430;SDS011;66498;48.564;19.272;2023-06-19T01:57:21;12.25;;;7.88;;
77430;SDS011;66498;48.564;19.272;2023-06-19T01:59:46;9.52;;;8.00;;
77430;SDS011;66498;48.564;19.272;2023-06-19T02:02:12;10.40;;;7.97;;
77430;SDS011;66498;48.564;19.272;2023-06-19T02:04:37;8.32;;;7.43;;
77430;SDS011;66498;48.564;19.272;2023-06-19T02:07:03;8.52;;;7.63;;
77430;SDS011;66498;48.564;19.272;2023-06-19T02:09:28;8.88;;;7.97;;
77430;SDS011;66498;48.564;19.272;2023-06-19T02:11:54;8.65;;;7.75;;
77430;SDS011;66498;48.564;19.272;2023-06-19T02:14:19;9.68;;;8.68;;
77430;SDS011;66498;48.564;19.272;2023-06-19T02:16:45;10.25;;;7.93;;
77430;SDS011;66498;48.564;19.272;2023-06-19T02:19:10;8.90;;;8.00;;
77430;SDS011;66498;48.564;19.272;2023-06-19T02:21:36;8.98;;;8.07;;
77430;SDS011;66498;48.564;19.272;2023-06-19T02:24:01;10.10;;;8.32;;
77430;SDS011;66498;48.564;19.272;2023-06-19T02:26:27;9.48;;;8.35;;
77430;SDS011;66498;48.564;19.272;2023-06-19T02:28:54;11.85;;;8.50;;
77430;SDS011;66498;48.564;19.272;2023-06-19T02:31:21;10.55;;;8.10;;
77430;SDS011;66498;48.564;19.272;2023-06-19T02:33:47;9.60;;;8.07;;
77430;SDS011;66498;48.564;19.272;2023-06-19T02:36:12;8.60;;;7.28;;
77430;SDS011;66498;48.564;19.272;2023-06-19T02:38:37;9.10;;;8.10;;
77430;SDS011;66498;48.564;19.272;2023-06-19T02:41:03;10.05;;;8.10;;
77430;SDS011;66498;48.564;19.272;2023-06-19T02:43:29;8.88;;;7.95;;
77430;SDS011;66498;48.564;19.272;2023-06-19T02:45:54;8.82;;;7.88;;
77430;SDS011;66498;48.564;19.272;2023-06-19T02:48:20;10.20;;;8.00;;
77430;SDS011;66498;48.564;19.272;2023-06-19T02:50:47;10.00;;;7.93;;
77430;SDS011;66498;48.564;19.272;2023-06-19T02:53:13;9.57;;;8.35;;
77430;SDS011;66498;48.564;19.272;2023-06-19T02:55:39;9.00;;;7.80;;
77430;SDS011;66498;48.564;19.272;2023-06-19T02:58:04;8.55;;;7.65;;
77430;SDS011;66498;48.564;19.272;2023-06-19T03:00:30;11.45;;;8.27;;
77430;SDS011;66498;48.564;19.272;2023-06-19T03:02:55;14.23;;;8.63;;
77430;SDS011;66498;48.564;19.272;2023-06-19T03:05:21;9.05;;;8.10;;
77430;SDS011;66498;48.564;19.272;2023-06-19T03:07:46;11.13;;;8.13;;
77430;SDS011;66498;48.564;19.272;2023-06-19T03:10:12;10.93;;;8.38;;
77430;SDS011;66498;48.564;19.272;2023-06-19T03:12:37;8.48;;;7.55;;
77430;SDS011;66498;48.564;19.272;2023-06-19T03:15:03;11.48;;;8.13;;
77430;SDS011;66498;48.564;19.272;2023-06-19T03:17:31;11.25;;;8.40;;
77430;SDS011;66498;48.564;19.272;2023-06-19T03:19:57;9.95;;;8.90;;
77430;SDS011;66498;48.564;19.272;2023-06-19T03:22:22;11.05;;;9.43;;
77430;SDS011;66498;48.564;19.272;2023-06-19T03:24:48;10.13;;;8.90;;
77430;SDS011;66498;48.564;19.272;2023-06-19T03:27:14;10.15;;;9.15;;
77430;SDS011;66498;48.564;19.272;2023-06-19T03:29:40;9.70;;;8.60;;
77430;SDS011;66498;48.564;19.272;2023-06-19T03:32:06;11.95;;;9.02;;
77430;SDS011;66498;48.564;19.272;2023-06-19T03:34:32;9.88;;;8.77;;
77430;SDS011;66498;48.564;19.272;2023-06-19T03:36:57;9.88;;;8.88;;
77430;SDS011;66498;48.564;19.272;2023-06-19T03:39:23;14.13;;;9.30;;
77430;SDS011;66498;48.564;19.272;2023-06-19T03:41:49;10.25;;;8.80;;
77430;SDS011;66498;48.564;19.272;2023-06-19T03:44:15;12.35;;;10.13;;
77430;SDS011;66498;48.564;19.272;2023-06-19T03:46:40;12.52;;;10.68;;
77430;SDS011;66498;48.564;19.272;2023-06-19T03:49:07;13.00;;;10.95;;
77430;SDS011;66498;48.564;19.272;2023-06-19T03:51:34;11.45;;;10.25;;
77430;SDS011;66498;48.564;19.272;2023-06-19T03:54:00;13.27;;;10.68;;
77430;SDS011;66498;48.564;19.272;2023-06-19T03:56:25;12.63;;;10.30;;
77430;SDS011;66498;48.564;19.272;2023-06-19T03:58:51;11.60;;;10.00;;
77430;SDS011;66498;48.564;19.272;2023-06-19T04:01:17;11.32;;;9.80;;
77430;SDS011;66498;48.564;19.272;2023-06-19T04:03:42;10.45;;;9.38;;
77430;SDS011;66498;48.564;19.272;2023-06-19T04:06:08;11.73;;;10.23;;
77430;SDS011;66498;48.564;19.272;2023-06-19T04:08:34;10.75;;;9.65;;
77430;SDS011;66498;48.564;19.272;2023-06-19T04:10:59;12.30;;;10.10;;
77430;SDS011;66498;48.564;19.272;2023-06-19T04:13:25;13.80;;;10.00;;
77430;SDS011;66498;48.564;19.272;2023-06-19T04:15:51;14.13;;;10.63;;
77430;SDS011;66498;48.564;19.272;2023-06-19T04:18:17;12.20;;;10.20;;
77430;SDS011;66498;48.564;19.272;2023-06-19T04:20:42;11.38;;;10.18;;
77430;SDS011;66498;48.564;19.272;2023-06-19T04:23:08;12.27;;;9.88;;
77430;SDS011;66498;48.564;19.272;2023-06-19T04:25:34;11.80;;;10.10;;
77430;SDS011;66498;48.564;19.272;2023-06-19T04:27:59;12.38;;;10.40;;
77430;SDS011;66498;48.564;19.272;2023-06-19T04:30:25;12.65;;;10.98;;
77430;SDS011;66498;48.564;19.272;2023-06-19T04:32:50;13.98;;;10.90;;
77430;SDS011;66498;48.564;19.272;2023-06-19T04:35:18;12.60;;;10.95;;
77430;SDS011;66498;48.564;19.272;2023-06-19T04:37:43;13.43;;;12.02;;
77430;SDS011;66498;48.564;19.272;2023-06-19T04:40:09;15.02;;;11.95;;
77430;SDS011;66498;48.564;19.272;2023-06-19T04:42:35;15.88;;;12.35;;
77430;SDS011;66498;48.564;19.272;2023-06-19T04:45:03;12.85;;;11.30;;
77430;SDS011;66498;48.564;19.272;2023-06-19T04:47:32;13.55;;;11.52;;
77430;SDS011;66498;48.564;19.272;2023-06-19T04:49:58;13.40;;;11.60;;
77430;SDS011;66498;48.564;19.272;2023-06-19T04:52:24;16.88;;;11.70;;
77430;SDS011;66498;48.564;19.272;2023-06-19T04:54:49;13.70;;;12.25;;
77430;SDS011;66498;48.564;19.272;2023-06-19T04:57:15;13.90;;;12.20;;
77430;SDS011;66498;48.564;19.272;2023-06-19T04:59:41;13.50;;;12.10;;
77430;SDS011;66498;48.564;19.272;2023-06-19T05:02:10;14.07;;;11.63;;
77430;SDS011;66498;48.564;19.272;2023-06-19T05:04:36;16.50;;;11.90;;
77430;SDS011;66498;48.564;19.272;2023-06-19T05:07:01;13.70;;;12.30;;
77430;SDS011;66498;48.564;19.272;2023-06-19T05:09:27;15.43;;;11.88;;
77430;SDS011;66498;48.564;19.272;2023-06-19T05:11:53;13.85;;;11.52;;
77430;SDS011;66498;48.564;19.272;2023-06-19T05:14:19;12.80;;;11.10;;
77430;SDS011;66498;48.564;19.272;2023-06-19T05:16:45;15.60;;;11.55;;
77430;SDS011;66498;48.564;19.272;2023-06-19T05:19:10;12.75;;;11.18;;
77430;SDS011;66498;48.564;19.272;2023-06-19T05:21:36;15.82;;;11.52;;
77430;SDS011;66498;48.564;19.272;2023-06-19T05:24:01;12.35;;;11.05;;
77430;SDS011;66498;48.564;19.272;2023-06-19T05:26:27;12.93;;;10.73;;
77430;SDS011;66498;48.564;19.272;2023-06-19T05:28:52;21.25;;;12.48;;
77430;SDS011;66498;48.564;19.272;2023-06-19T05:31:18;13.60;;;10.65;;
77430;SDS011;66498;48.564;19.272;2023-06-19T05:33:44;13.02;;;10.10;;
77430;SDS011;66498;48.564;19.272;2023-06-19T05:36:09;13.65;;;10.15;;
77430;SDS011;66498;48.564;19.272;2023-06-19T05:38:35;11.60;;;9.98;;
77430;SDS011;66498;48.564;19.272;2023-06-19T05:41:01;11.85;;;9.98;;
77430;SDS011;66498;48.564;19.272;2023-06-19T05:43:27;13.73;;;11.27;;
77430;SDS011;66498;48.564;19.272;2023-06-19T05:45:53;11.02;;;9.60;;
77430;SDS011;66498;48.564;19.272;2023-06-19T05:48:20;11.95;;;9.85;;
77430;SDS011;66498;48.564;19.272;2023-06-19T05:50:46;11.38;;;9.88;;
77430;SDS011;66498;48.564;19.272;2023-06-19T05:53:12;12.23;;;10.02;;
77430;SDS011;66498;48.564;19.272;2023-06-19T05:55:37;12.27;;;10.38;;
77430;SDS011;66498;48.564;19.272;2023-06-19T05:58:03;14.57;;;10.27;;
77430;SDS011;66498;48.564;19.272;2023-06-19T06:00:29;10.90;;;9.73;;
77430;SDS011;66498;48.564;19.272;2023-06-19T06:02:56;12.05;;;9.90;;
77430;SDS011;66498;48.564;19.272;2023-06-19T06:05:24;12.25;;;10.07;;
77430;SDS011;66498;48.564;19.272;2023-06-19T06:07:50;11.18;;;9.70;;
77430;SDS011;66498;48.564;19.272;2023-06-19T06:10:15;10.23;;;9.00;;
77430;SDS011;66498;48.564;19.272;2023-06-19T06:12:42;11.57;;;9.35;;
77430;SDS011;66498;48.564;19.272;2023-06-19T06:15:07;11.07;;;9.32;;
77430;SDS011;66498;48.564;19.272;2023-06-19T06:17:33;10.43;;;9.32;;
77430;SDS011;66498;48.564;19.272;2023-06-19T06:19:58;13.68;;;9.57;;
77430;SDS011;66498;48.564;19.272;2023-06-19T06:22:24;9.98;;;8.63;;
77430;SDS011;66498;48.564;19.272;2023-06-19T06:24:50;11.98;;;8.90;;
77430;SDS011;66498;48.564;19.272;2023-06-19T06:27:15;12.05;;;9.07;;
77430;SDS011;66498;48.564;19.272;2023-06-19T06:29:41;9.80;;;8.80;;
77430;SDS011;66498;48.564;19.272;2023-06-19T06:32:07;9.10;;;8.20;;
77430;SDS011;66498;48.564;19.272;2023-06-19T06:34:33;9.93;;;8.60;;
77430;SDS011;66498;48.564;19.272;2023-06-19T06:37:02;10.07;;;8.27;;
77430;SDS011;66498;48.564;19.272;2023-06-19T06:39:28;12.95;;;8.13;;
77430;SDS011;66498;48.564;19.272;2023-06-19T06:41:53;10.07;;;8.80;;
77430;SDS011;66498;48.564;19.272;2023-06-19T06:44:19;11.40;;;8.50;;
77430;SDS011;66498;48.564;19.272;2023-06-19T06:46:45;11.30;;;8.80;;
77430;SDS011;66498;48.564;19.272;2023-06-19T06:49:11;9.20;;;8.20;;
77430;SDS011;66498;48.564;19.272;2023-06-19T06:51:36;9.00;;;8.10;;
77430;SDS011;66498;48.564;19.272;2023-06-19T06:54:02;10.95;;;7.95;;
77430;SDS011;66498;48.564;19.272;2023-06-19T06:56:28;11.30;;;8.52;;
77430;SDS011;66498;48.564;19.272;2023-06-19T06:58:53;9.02;;;8.13;;
77430;SDS011;66498;48.564;19.272;2023-06-19T07:01:19;9.00;;;7.40;;
77430;SDS011;66498;48.564;19.272;2023-06-19T07:03:44;10.02;;;7.65;;
77430;SDS011;66498;48.564;19.272;2023-06-19T07:06:10;8.63;;;7.65;;
77430;SDS011;66498;48.564;19.272;2023-06-19T07:08:35;8.30;;;7.40;;
77430;SDS011;66498;48.564;19.272;2023-06-19T07:11:01;8.10;;;7.18;;
77430;SDS011;66498;48.564;19.272;2023-06-19T07:13:28;8.13;;;7.32;;
77430;SDS011;66498;48.564;19.272;2023-06-19T07:15:53;7.43;;;6.72;;
77430;SDS011;66498;48.564;19.272;2023-06-19T07:18:19;10.23;;;7.22;;
77430;SDS011;66498;48.564;19.272;2023-06-19T07:20:44;7.65;;;6.90;;
77430;SDS011;66498;48.564;19.272;2023-06-19T07:23:10;9.32;;;7.15;;
77430;SDS011;66498;48.564;19.272;2023-06-19T07:25:36;7.82;;;6.97;;
77430;SDS011;66498;48.564;19.272;2023-06-19T07:28:01;10.93;;;7.28;;
77430;SDS011;66498;48.564;19.272;2023-06-19T07:30:29;7.75;;;7.00;;
77430;SDS011;66498;48.564;19.272;2023-06-19T07:32:55;7.57;;;6.60;;
77430;SDS011;66498;48.564;19.272;2023-06-19T07:35:21;8.27;;;7.22;;
77430;SDS011;66498;48.564;19.272;2023-06-19T07:37:46;7.93;;;6.95;;
77430;SDS011;66498;48.564;19.272;2023-06-19T07:40:12;8.00;;;6.85;;
77430;SDS011;66498;48.564;19.272;2023-06-19T07:42:37;7.70;;;6.90;;
77430;SDS011;66498;48.564;19.272;2023-06-19T07:45:03;8.15;;;6.57;;
77430;SDS011;66498;48.564;19.272;2023-06-19T07:47:29;8.07;;;6.82;;
77430;SDS011;66498;48.564;19.272;2023-06-19T07:49:54;6.90;;;6.20;;
77430;SDS011;66498;48.564;19.272;2023-06-19T07:52:20;7.07;;;6.38;;
77430;SDS011;66498;48.564;19.272;2023-06-19T07:54:52;7.45;;;6.43;;
77430;SDS011;66498;48.564;19.272;2023-06-19T07:57:19;7.07;;;6.38;;
77430;SDS011;66498;48.564;19.272;2023-06-19T07:59:46;7.50;;;6.35;;
77430;SDS011;66498;48.564;19.272;2023-06-19T08:02:12;7.65;;;6.38;;
77430;SDS011;66498;48.564;19.272;2023-06-19T08:04:38;7.03;;;6.32;;
77430;SDS011;66498;48.564;19.272;2023-06-19T08:07:03;7.05;;;6.05;;
77430;SDS011;66498;48.564;19.272;2023-06-19T08:09:29;7.20;;;6.50;;
77430;SDS011;66498;48.564;19.272;2023-06-19T08:11:55;7.32;;;6.53;;
77430;SDS011;66498;48.564;19.272;2023-06-19T08:14:21;7.40;;;5.93;;
77430;SDS011;66498;48.564;19.272;2023-06-19T08:16:47;7.60;;;6.00;;
77430;SDS011;66498;48.564;19.272;2023-06-19T08:19:13;7.30;;;6.60;;
77430;SDS011;66498;48.564;19.272;2023-06-19T08:21:38;7.88;;;6.32;;
77430;SDS011;66498;48.564;19.272;2023-06-19T08:24:04;7.90;;;6.50;;
77430;SDS011;66498;48.564;19.272;2023-06-19T08:26:30;7.57;;;6.88;;
77430;SDS011;66498;48.564;19.272;2023-06-19T08:28:55;7.55;;;6.00;;
77430;SDS011;66498;48.564;19.272;2023-06-19T08:31:20;7.60;;;6.70;;
77430;SDS011;66498;48.564;19.272;2023-06-19T08:33:52;9.45;;;7.10;;
77430;SDS011;66498;48.564;19.272;2023-06-19T08:36:20;7.40;;;6.50;;
77430;SDS011;66498;48.564;19.272;2023-06-19T08:38:46;7.75;;;6.95;;
77430;SDS011;66498;48.564;19.272;2023-06-19T08:41:14;7.35;;;6.65;;
77430;SDS011;66498;48.564;19.272;2023-06-19T08:43:41;8.48;;;7.00;;
77430;SDS011;66498;48.564;19.272;2023-06-19T08:46:11;11.13;;;7.25;;
77430;SDS011;66498;48.564;19.272;2023-06-19T08:48:40;9.43;;;6.85;;
77430;SDS011;66498;48.564;19.272;2023-06-19T08:51:06;7.50;;;6.63;;
77430;SDS011;66498;48.564;19.272;2023-06-19T08:53:33;7.68;;;6.78;;
77430;SDS011;66498;48.564;19.272;2023-06-19T08:56:09;7.50;;;6.45;;
77430;SDS011;66498;48.564;19.272;2023-06-19T08:58:35;9.55;;;7.00;;
77430;SDS011;66498;48.564;19.272;2023-06-19T09:01:00;8.25;;;6.60;;
77430;SDS011;66498;48.564;19.272;2023-06-19T09:03:26;7.63;;;6.90;;
77430;SDS011;66498;48.564;19.272;2023-06-19T09:05:51;8.93;;;6.82;;
77430;SDS011;66498;48.564;19.272;2023-06-19T09:08:17;7.35;;;6.60;;
77430;SDS011;66498;48.564;19.272;2023-06-19T09:11:18;7.20;;;6.25;;
77430;SDS011;66498;48.564;19.272;2023-06-19T09:13:36;9.48;;;6.32;;
77430;SDS011;66498;48.564;19.272;2023-06-19T09:16:02;7.43;;;6.10;;
77430;SDS011;66498;48.564;19.272;2023-06-19T09:18:43;9.55;;;6.60;;
77430;SDS011;66498;48.564;19.272;2023-06-19T09:21:16;8.13;;;6.68;;
77430;SDS011;66498;48.564;19.272;2023-06-19T09:23:47;8.27;;;7.07;;
77430;SDS011;66498;48.564;19.272;2023-06-19T09:26:16;10.15;;;7.40;;
77430;SDS011;66498;48.564;19.272;2023-06-19T09:28:43;8.77;;;7.25;;
77430;SDS011;66498;48.564;19.272;2023-06-19T09:31:08;10.85;;;8.10;;
77430;SDS011;66498;48.564;19.272;2023-06-19T09:33:34;7.07;;;6.38;;
77430;SDS011;66498;48.564;19.272;2023-06-19T09:36:03;10.02;;;7.57;;
77430;SDS011;66498;48.564;19.272;2023-06-19T09:38:31;8.40;;;7.47;;
77430;SDS011;66498;48.564;19.272;2023-06-19T09:41:02;8.55;;;7.45;;
77430;SDS011;66498;48.564;19.272;2023-06-19T09:43:39;8.65;;;6.88;;
77430;SDS011;66498;48.564;19.272;2023-06-19T09:46:10;7.82;;;6.63;;
77430;SDS011;66498;48.564;19.272;2023-06-19T09:48:40;7.95;;;6.82;;
77430;SDS011;66498;48.564;19.272;2023-06-19T09:51:17;8.30;;;6.50;;
77430;SDS011;66498;48.564;19.272;2023-06-19T09:53:53;8.88;;;7.53;;
77430;SDS011;66498;48.564;19.272;2023-06-19T09:56:19;8.43;;;7.15;;
77430;SDS011;66498;48.564;19.272;2023-06-19T09:58:51;8.63;;;7.15;;
77430;SDS011;66498;48.564;19.272;2023-06-19T10:01:19;8.93;;;6.93;;
77430;SDS011;66498;48.564;19.272;2023-06-19T10:03:46;7.78;;;6.60;;
77430;SDS011;66498;48.564;19.272;2023-06-19T10:06:15;7.60;;;6.88;;
77430;SDS011;66498;48.564;19.272;2023-06-19T10:08:42;8.65;;;7.18;;
77430;SDS011;66498;48.564;19.272;2023-06-19T10:11:12;8.43;;;6.60;;
77430;SDS011;66498;48.564;19.272;2023-06-19T10:13:40;7.40;;;5.32;;
77430;SDS011;66498;48.564;19.272;2023-06-19T10:16:07;8.68;;;5.93;;
77430;SDS011;66498;48.564;19.272;2023-06-19T10:18:44;8.13;;;6.53;;
77430;SDS011;66498;48.564;19.272;2023-06-19T10:21:18;8.73;;;6.63;;
77430;SDS011;66498;48.564;19.272;2023-06-19T10:23:53;8.32;;;6.10;;
77430;SDS011;66498;48.564;19.272;2023-06-19T10:26:19;7.15;;;6.45;;
77430;SDS011;66498;48.564;19.272;2023-06-19T10:28:46;8.18;;;6.43;;
77430;SDS011;66498;48.564;19.272;2023-06-19T10:31:14;7.28;;;6.57;;
77430;SDS011;66498;48.564;19.272;2023-06-19T10:33:40;7.43;;;5.97;;
77430;SDS011;66498;48.564;19.272;2023-06-19T10:36:19;7.93;;;6.40;;
77430;SDS011;66498;48.564;19.272;2023-06-19T10:38:47;7.45;;;6.22;;
77430;SDS011;66498;48.564;19.272;2023-06-19T10:41:19;7.95;;;6.50;;
77430;SDS011;66498;48.564;19.272;2023-06-19T10:43:59;8.00;;;6.45;;
77430;SDS011;66498;48.564;19.272;2023-06-19T10:46:38;7.40;;;6.47;;
77430;SDS011;66498;48.564;19.272;2023-06-19T10:49:05;7.47;;;6.40;;
77430;SDS011;66498;48.564;19.272;2023-06-19T10:51:39;7.55;;;6.68;;
77430;SDS011;66498;48.564;19.272;2023-06-19T10:54:06;8.20;;;6.35;;
77430;SDS011;66498;48.564;19.272;2023-06-19T10:56:33;7.13;;;6.22;;
77430;SDS011;66498;48.564;19.272;2023-06-19T10:59:03;7.82;;;6.30;;
77430;SDS011;66498;48.564;19.272;2023-06-19T11:01:32;8.15;;;6.30;;
77430;SDS011;66498;48.564;19.272;2023-06-19T11:03:59;10.65;;;6.50;;
77430;SDS011;66498;48.564;19.272;2023-06-19T11:06:27;7.15;;;6.28;;
77430;SDS011;66498;48.564;19.272;2023-06-19T11:08:55;6.38;;;5.32;;
77430;SDS011;66498;48.564;19.272;2023-06-19T11:11:21;6.07;;;5.47;;
77430;SDS011;66498;48.564;19.272;2023-06-19T11:13:46;6.68;;;5.80;;
77430;SDS011;66498;48.564;19.272;2023-06-19T11:16:14;6.88;;;6.10;;
77430;SDS011;66498;48.564;19.272;2023-06-19T11:18:39;7.38;;;6.32;;
77430;SDS011;66498;48.564;19.272;2023-06-19T11:21:05;6.75;;;5.10;;
77430;SDS011;66498;48.564;19.272;2023-06-19T11:23:31;8.25;;;6.28;;
77430;SDS011;66498;48.564;19.272;2023-06-19T11:26:03;7.07;;;6.38;;
77430;SDS011;66498;48.564;19.272;2023-06-19T11:28:30;8.05;;;6.35;;
77430;SDS011;66498;48.564;19.272;2023-06-19T11:31:02;7.70;;;6.88;;
77430;SDS011;66498;48.564;19.272;2023-06-19T11:33:28;6.50;;;5.80;;
77430;SDS011;66498;48.564;19.272;2023-06-19T11:35:54;7.13;;;6.43;;
77430;SDS011;66498;48.564;19.272;2023-06-19T11:38:24;8.05;;;6.93;;
77430;SDS011;66498;48.564;19.272;2023-06-19T11:40:51;7.40;;;6.60;;
77430;SDS011;66498;48.564;19.272;2023-06-19T11:43:24;9.52;;;6.28;;
77430;SDS011;66498;48.564;19.272;2023-06-19T11:45:52;7.22;;;6.10;;
77430;SDS011;66498;48.564;19.272;2023-06-19T11:48:25;9.80;;;6.25;;
77430;SDS011;66498;48.564;19.272;2023-06-19T11:50:51;6.47;;;5.67;;
77430;SDS011;66498;48.564;19.272;2023-06-19T11:53:18;7.00;;;5.90;;
77430;SDS011;66498;48.564;19.272;2023-06-19T11:55:44;8.25;;;5.95;;
77430;SDS011;66498;48.564;19.272;2023-06-19T11:58:10;7.00;;;5.85;;
77430;SDS011;66498;48.564;19.272;2023-06-19T12:00:36;6.60;;;5.93;;
77430;SDS011;66498;48.564;19.272;2023-06-19T12:03:02;7.35;;;5.50;;
77430;SDS011;66498;48.564;19.272;2023-06-19T12:05:28;6.30;;;5.70;;
77430;SDS011;66498;48.564;19.272;2023-06-19T12:07:54;6.25;;;5.65;;
77430;SDS011;66498;48.564;19.272;2023-06-19T12:10:19;6.15;;;5.43;;
77430;SDS011;66498;48.564;19.272;2023-06-19T12:12:45;6.47;;;5.47;;
77430;SDS011;66498;48.564;19.272;2023-06-19T12:15:10;7.90;;;5.68;;
77430;SDS011;66498;48.564;19.272;2023-06-19T12:17:36;5.72;;;4.68;;
77430;SDS011;66498;48.564;19.272;2023-06-19T12:20:02;6.38;;;5.00;;
77430;SDS011;66498;48.564;19.272;2023-06-19T12:22:32;6.72;;;5.28;;
77430;SDS011;66498;48.564;19.272;2023-06-19T12:24:58;6.50;;;5.28;;
77430;SDS011;66498;48.564;19.272;2023-06-19T12:27:24;6.30;;;5.00;;
77430;SDS011;66498;48.564;19.272;2023-06-19T12:29:50;5.90;;;5.30;;
77430;SDS011;66498;48.564;19.272;2023-06-19T12:32:15;5.15;;;4.65;;
77430;SDS011;66498;48.564;19.272;2023-06-19T12:34:41;5.68;;;5.18;;
77430;SDS011;66498;48.564;19.272;2023-06-19T12:37:11;7.72;;;5.60;;
77430;SDS011;66498;48.564;19.272;2023-06-19T12:39:39;6.60;;;4.97;;
77430;SDS011;66498;48.564;19.272;2023-06-19T12:42:05;6.85;;;5.10;;
77430;SDS011;66498;48.564;19.272;2023-06-19T12:44:31;5.43;;;4.88;;
77430;SDS011;66498;48.564;19.272;2023-06-19T12:46:57;6.78;;;4.90;;
77430;SDS011;66498;48.564;19.272;2023-06-19T12:49:25;6.03;;;5.07;;
77430;SDS011;66498;48.564;19.272;2023-06-19T12:51:50;6.43;;;5.38;;
77430;SDS011;66498;48.564;19.272;2023-06-19T12:54:17;5.10;;;4.60;;
77430;SDS011;66498;48.564;19.272;2023-06-19T12:56:43;5.60;;;4.90;;
77430;SDS011;66498;48.564;19.272;2023-06-19T12:59:09;6.22;;;5.28;;
77430;SDS011;66498;48.564;19.272;2023-06-19T13:01:34;6.00;;;5.40;;
77430;SDS011;66498;48.564;19.272;2023-06-19T13:04:00;11.15;;;5.20;;
77430;SDS011;66498;48.564;19.272;2023-06-19T13:06:25;5.72;;;5.13;;
77430;SDS011;66498;48.564;19.272;2023-06-19T13:08:51;5.88;;;5.07;;
77430;SDS011;66498;48.564;19.272;2023-06-19T13:11:16;6.22;;;5.63;;
77430;SDS011;66498;48.564;19.272;2023-06-19T13:13:42;6.60;;;5.43;;
77430;SDS011;66498;48.564;19.272;2023-06-19T13:16:08;5.57;;;4.97;;
77430;SDS011;66498;48.564;19.272;2023-06-19T13:18:34;6.22;;;5.38;;
77430;SDS011;66498;48.564;19.272;2023-06-19T13:21:00;6.50;;;5.50;;
77430;SDS011;66498;48.564;19.272;2023-06-19T13:23:26;6.40;;;5.70;;
77430;SDS011;66498;48.564;19.272;2023-06-19T13:25:51;8.02;;;4.97;;
77430;SDS011;66498;48.564;19.272;2023-06-19T13:28:17;6.80;;;6.00;;
77430;SDS011;66498;48.564;19.272;2023-06-19T13:30:42;5.63;;;5.00;;
77430;SDS011;66498;48.564;19.272;2023-06-19T13:33:08;5.72;;;5.20;;
77430;SDS011;66498;48.564;19.272;2023-06-19T13:35:34;6.07;;;5.32;;
77430;SDS011;66498;48.564;19.272;2023-06-19T13:38:00;6.25;;;5.57;;
77430;SDS011;66498;48.564;19.272;2023-06-19T13:40:26;6.97;;;5.30;;
77430;SDS011;66498;48.564;19.272;2023-06-19T13:42:51;8.05;;;5.47;;
77430;SDS011;66498;48.564;19.272;2023-06-19T13:45:17;6.07;;;5.15;;
77430;SDS011;66498;48.564;19.272;2023-06-19T13:47:43;5.93;;;5.20;;
77430;SDS011;66498;48.564;19.272;2023-06-19T13:50:08;5.68;;;5.07;;
77430;SDS011;66498;48.564;19.272;2023-06-19T13:52:34;6.10;;;5.45;;
77430;SDS011;66498;48.564;19.272;2023-06-19T13:55:01;6.57;;;5.70;;
77430;SDS011;66498;48.564;19.272;2023-06-19T13:57:27;6.88;;;5.38;;
77430;SDS011;66498;48.564;19.272;2023-06-19T13:59:53;9.02;;;5.68;;
77430;SDS011;66498;48.564;19.272;2023-06-19T14:02:18;6.28;;;5.57;;
77430;SDS011;66498;48.564;19.272;2023-06-19T14:04:44;5.78;;;5.18;;
77430;SDS011;66498;48.564;19.272;2023-06-19T14:07:09;6.15;;;5.40;;
77430;SDS011;66498;48.564;19.272;2023-06-19T14:09:35;8.68;;;5.90;;
77430;SDS011;66498;48.564;19.272;2023-06-19T14:12:00;6.68;;;5.90;;
77430;SDS011;66498;48.564;19.272;2023-06-19T14:14:26;7.65;;;5.60;;
77430;SDS011;66498;48.564;19.272;2023-06-19T14:16:52;7.75;;;6.00;;
77430;SDS011;66498;48.564;19.272;2023-06-19T14:19:17;6.40;;;5.50;;
77430;SDS011;66498;48.564;19.272;2023-06-19T14:21:43;7.65;;;6.32;;
77430;SDS011;66498;48.564;19.272;2023-06-19T14:24:08;6.00;;;5.28;;
77430;SDS011;66498;48.564;19.272;2023-06-19T14:26:34;6.68;;;5.97;;
77430;SDS011;66498;48.564;19.272;2023-06-19T14:28:59;6.85;;;6.07;;